logo tempoitalia

Diretta Meteo Tindal-Katherine, Australialunedì 31 agosto ore 14:30

Mappa
Sereno 33 °C Sereno 24 Ore: T.min 17 T.max 33
Ponente Est/Sud-Est Km/h 18.5 Punto di rugiada: 10 °C Umidità: 24% Visibilità: 10 Km
Il sole sorge alle: 06:46 Il sole tramonta alle: 18:35
31 Agosto 2026 14:30 tempo osservato: Sereno Sereno 33 24 1016 vento: Nord E/SE 18.5
31 Agosto 2026 14:00 tempo osservato: Sereno Sereno 32 25 1017 vento: Nord E 22.2
31 Agosto 2026 13:30 tempo osservato: Sereno Sereno 32 24 1017 vento: Nord SE 24
31 Agosto 2026 13:00 tempo osservato: Sereno Sereno 31 27 1018 vento: Nord E 22.2
31 Agosto 2026 12:46 tempo osservato: Sereno Sereno 32 27 1018 vento: Nord E 24
31 Agosto 2026 12:31 tempo osservato: Sereno Sereno 31 27 1018 vento: Nord E 27.8
31 Agosto 2026 12:19 tempo osservato: Sereno Sereno 31 27 1018 vento: Nord E 25.9
31 Agosto 2026 12:02 tempo osservato: Sereno Sereno 31 25 1019 vento: Nord SE 27.8
31 Agosto 2026 11:30 tempo osservato: Sereno Sereno 30 28 1019 vento: Nord E 25.9
31 Agosto 2026 11:00 tempo osservato: Sereno Sereno 30 28 1020 vento: Nord E 24
31 Agosto 2026 10:30 tempo osservato: Sereno Sereno 29 30 1020 vento: Nord E 27.8
31 Agosto 2026 10:06 tempo osservato: Sereno Sereno 29 30 1020 vento: Nord E 25.9
31 Agosto 2026 10:00 tempo osservato: Sereno Sereno 29 32 1020 vento: Nord E 27.8
31 Agosto 2026 09:56 tempo osservato: Sereno Sereno 29 32 1020 vento: Nord E 27.8
31 Agosto 2026 09:30 tempo osservato: Sereno Sereno 26 47 1020 vento: Nord E/NE 13
31 Agosto 2026 09:00 tempo osservato: Sereno Sereno 25 57 1020 vento: Nord N 5.5
31 Agosto 2026 08:30 tempo osservato: Sereno Sereno 23 73 1020 vento: Nord E/SE 7.4
31 Agosto 2026 08:00 tempo osservato: Sereno Sereno 21 77 1020 vento: Nord SE 7.4
31 Agosto 2026 07:30 tempo osservato: Sereno Sereno 19 77 1020 vento: Nord N 5.5
31 Agosto 2026 07:00 tempo osservato: Sereno Sereno 17 82 1019 vento: Nord N 5.5
31 Agosto 2026 06:30 tempo osservato: Sereno Sereno 17 82 1019 vento: Nord N 5.5
31 Agosto 2026 06:00 tempo osservato: Sereno Sereno 18 72 1018 vento: Nord S/SE 11.1
31 Agosto 2026 05:30 tempo osservato: Sereno Sereno 18 72 1018 vento: Nord S/SE 7.4
31 Agosto 2026 05:00 tempo osservato: Sereno Sereno 18 67 1018 vento: Nord SE 9.3
31 Agosto 2026 04:30 tempo osservato: Sereno Sereno 18 67 1017 vento: Nord SE 11.1
31 Agosto 2026 04:00 tempo osservato: Sereno Sereno 18 67 1017 vento: Nord SE 9.3
31 Agosto 2026 03:30 tempo osservato: Sereno Sereno 19 59 1017 vento: Nord SE 9.3
31 Agosto 2026 03:00 tempo osservato: Sereno Sereno 20 56 1017 vento: Nord SE 9.3
31 Agosto 2026 02:30 tempo osservato: Sereno Sereno 21 52 1017 vento: Nord E 11.1
31 Agosto 2026 02:00 tempo osservato: Sereno Sereno 22 46 1018 vento: Nord E 9.3
31 Agosto 2026 01:30 tempo osservato: Sereno Sereno 21 49 1018 vento: Nord E/SE 9.3
31 Agosto 2026 01:00 tempo osservato: Sereno Sereno 20 52 1018 vento: Nord SE 9.3
31 Agosto 2026 00:30 tempo osservato: Sereno Sereno 20 52 1018 vento: Nord SE 7.4
31 Agosto 2026 00:00 tempo osservato: Sereno Sereno 21 49 1018 vento: Nord SE 7.4
30 Agosto 2026 23:30 tempo osservato: Sereno Sereno 21 49 1018 vento: Nord SE 9.3
30 Agosto 2026 23:00 tempo osservato: Sereno Sereno 21 49 1018 vento: Nord S/SE 11.1
30 Agosto 2026 22:30 tempo osservato: Sereno Sereno 22 46 1017 vento: Nord SE 11.1
30 Agosto 2026 22:00 tempo osservato: Sereno Sereno 23 43 1017 vento: Nord SE 11.1
30 Agosto 2026 21:30 tempo osservato: Sereno Sereno 22 49 1017 vento: Nord S/SE 9.3
30 Agosto 2026 21:00 tempo osservato: Sereno Sereno 22 49 1017 vento: Nord S/SE 7.4
30 Agosto 2026 20:30 tempo osservato: Sereno Sereno 24 41 1016 vento: Nord SE 7.4
30 Agosto 2026 20:00 tempo osservato: Sereno Sereno 25 38 1016 vento: Nord SE 7.4
30 Agosto 2026 19:30 tempo osservato: Sereno Sereno 27 34 1015 vento: Nord SE 9.3
30 Agosto 2026 19:00 tempo osservato: Sereno Sereno 28 30 1015 vento: Nord SE 11.1
30 Agosto 2026 18:30 tempo osservato: Sereno Sereno 30 27 1015 vento: Nord SE 13
30 Agosto 2026 18:00 tempo osservato: Sereno Sereno 31 25 1014 vento: Nord E/SE 16.7
30 Agosto 2026 17:30 tempo osservato: Sereno Sereno 32 24 1014 vento: Nord E/SE 22.2
30 Agosto 2026 17:00 tempo osservato: Sereno Sereno 33 22 1014 vento: Nord E/SE 22.2
30 Agosto 2026 16:30 tempo osservato: Sereno Sereno 33 24 1014 vento: Nord E/SE 18.5
30 Agosto 2026 16:00 tempo osservato: Sereno Sereno 33 22 1014 vento: Nord SE 20.3
30 Agosto 2026 15:30 tempo osservato: Sereno Sereno 33 22 1014 vento: Nord S/SE 22.2